sensor_id;sensor_type;location;lat;lon;timestamp;pressure;altitude;pressure_sealevel;temperature;humidity
22651;BME280;11492;42.646;23.400;2022-12-13T00:01:31;94494.06;;;1.38;76.00
22651;BME280;11492;42.646;23.400;2022-12-13T00:03:59;94504.63;;;1.43;76.07
22651;BME280;11492;42.646;23.400;2022-12-13T00:06:25;94505.97;;;1.38;76.69
22651;BME280;11492;42.646;23.400;2022-12-13T00:08:51;94510.78;;;1.41;75.86
22651;BME280;11492;42.646;23.400;2022-12-13T00:11:17;94515.59;;;1.44;75.36
22651;BME280;11492;42.646;23.400;2022-12-13T00:13:42;94512.41;;;1.23;75.68
22651;BME280;11492;42.646;23.400;2022-12-13T00:16:14;94525.75;;;1.34;76.50
22651;BME280;11492;42.646;23.400;2022-12-13T00:18:39;94523.75;;;1.38;76.68
22651;BME280;11492;42.646;23.400;2022-12-13T00:21:12;94520.44;;;1.28;74.71
22651;BME280;11492;42.646;23.400;2022-12-13T00:23:38;94526.31;;;1.38;75.31
22651;BME280;11492;42.646;23.400;2022-12-13T00:26:11;94514.00;;;1.24;75.46
22651;BME280;11492;42.646;23.400;2022-12-13T00:28:37;94524.97;;;1.34;75.25
22651;BME280;11492;42.646;23.400;2022-12-13T00:31:03;94526.31;;;1.38;75.36
22651;BME280;11492;42.646;23.400;2022-12-13T00:33:29;94519.47;;;1.38;76.01
22651;BME280;11492;42.646;23.400;2022-12-13T00:35:55;94519.09;;;1.33;75.86
22651;BME280;11492;42.646;23.400;2022-12-13T00:38:22;94512.94;;;1.36;75.52
22651;BME280;11492;42.646;23.400;2022-12-13T00:40:47;94519.31;;;1.49;76.05
22651;BME280;11492;42.646;23.400;2022-12-13T00:43:13;94518.03;;;1.36;75.38
22651;BME280;11492;42.646;23.400;2022-12-13T00:45:38;94524.56;;;1.29;75.51
22651;BME280;11492;42.646;23.400;2022-12-13T00:48:05;94524.84;;;1.26;74.43
22651;BME280;11492;42.646;23.400;2022-12-13T00:50:31;94531.38;;;1.38;75.83
22651;BME280;11492;42.646;23.400;2022-12-13T00:52:58;94529.78;;;1.46;75.94
22651;BME280;11492;42.646;23.400;2022-12-13T00:55:23;94527.09;;;1.48;76.50
22651;BME280;11492;42.646;23.400;2022-12-13T00:57:49;94525.63;;;1.45;76.16
22651;BME280;11492;42.646;23.400;2022-12-13T01:00:14;94523.34;;;1.42;75.66
22651;BME280;11492;42.646;23.400;2022-12-13T01:02:40;94528.69;;;1.48;76.43
22651;BME280;11492;42.646;23.400;2022-12-13T01:05:06;94533.50;;;1.51;75.26
22651;BME280;11492;42.646;23.400;2022-12-13T01:07:32;94519.06;;;1.43;75.33
22651;BME280;11492;42.646;23.400;2022-12-13T01:09:57;94523.09;;;1.45;75.76
22651;BME280;11492;42.646;23.400;2022-12-13T01:12:23;94527.34;;;1.54;76.56
22651;BME280;11492;42.646;23.400;2022-12-13T01:14:48;94527.34;;;1.54;76.04
22651;BME280;11492;42.646;23.400;2022-12-13T01:17:14;94534.00;;;1.55;76.52
22651;BME280;11492;42.646;23.400;2022-12-13T01:19:39;94538.31;;;1.54;75.54
22651;BME280;11492;42.646;23.400;2022-12-13T01:22:05;94546.38;;;1.41;75.55
22651;BME280;11492;42.646;23.400;2022-12-13T01:24:32;94540.75;;;1.47;76.05
22651;BME280;11492;42.646;23.400;2022-12-13T01:26:58;94540.44;;;1.49;76.47
22651;BME280;11492;42.646;23.400;2022-12-13T01:29:25;94537.00;;;1.41;76.08
22651;BME280;11492;42.646;23.400;2022-12-13T01:31:51;94544.50;;;1.24;76.19
22651;BME280;11492;42.646;23.400;2022-12-13T01:34:18;94542.63;;;1.35;76.20
22651;BME280;11492;42.646;23.400;2022-12-13T01:36:46;94546.09;;;1.44;75.30
22651;BME280;11492;42.646;23.400;2022-12-13T01:39:16;94550.03;;;1.10;74.61
22651;BME280;11492;42.646;23.400;2022-12-13T01:41:43;94535.69;;;1.19;74.91
22651;BME280;11492;42.646;23.400;2022-12-13T01:47:13;94523.13;;;1.26;75.45
22651;BME280;11492;42.646;23.400;2022-12-13T01:49:40;94536.38;;;1.30;75.10
22651;BME280;11492;42.646;23.400;2022-12-13T01:52:07;94537.41;;;1.37;75.02
22651;BME280;11492;42.646;23.400;2022-12-13T01:54:39;94549.59;;;1.33;76.44
22651;BME280;11492;42.646;23.400;2022-12-13T01:57:09;94541.72;;;1.27;76.08
22651;BME280;11492;42.646;23.400;2022-12-13T01:59:38;94530.75;;;1.17;75.58
22651;BME280;11492;42.646;23.400;2022-12-13T02:02:06;94535.28;;;1.14;75.92
22651;BME280;11492;42.646;23.400;2022-12-13T02:07:45;94539.16;;;1.18;76.43
22651;BME280;11492;42.646;23.400;2022-12-13T02:10:11;94539.97;;;1.18;75.79
22651;BME280;11492;42.646;23.400;2022-12-13T02:12:38;94545.88;;;1.09;75.67
22651;BME280;11492;42.646;23.400;2022-12-13T02:15:07;94530.63;;;1.09;75.19
22651;BME280;11492;42.646;23.400;2022-12-13T02:18:01;94535.72;;;1.09;75.39
22651;BME280;11492;42.646;23.400;2022-12-13T02:31:11;94543.34;;;0.91;76.30
22651;BME280;11492;42.646;23.400;2022-12-13T02:36:19;94535.97;;;0.88;76.22
22651;BME280;11492;42.646;23.400;2022-12-13T02:38:58;94541.31;;;0.75;75.93
22651;BME280;11492;42.646;23.400;2022-12-13T02:46:31;94554.56;;;0.79;76.20
22651;BME280;11492;42.646;23.400;2022-12-13T02:48:59;94547.19;;;0.76;76.34
22651;BME280;11492;42.646;23.400;2022-12-13T02:51:26;94557.84;;;0.51;75.32
22651;BME280;11492;42.646;23.400;2022-12-13T02:53:51;94552.00;;;0.60;76.28
22651;BME280;11492;42.646;23.400;2022-12-13T02:56:17;94545.72;;;0.64;76.63
22651;BME280;11492;42.646;23.400;2022-12-13T02:58:51;94557.63;;;0.73;75.97
22651;BME280;11492;42.646;23.400;2022-12-13T03:05:38;94558.38;;;0.36;75.59
22651;BME280;11492;42.646;23.400;2022-12-13T03:07:59;94557.53;;;0.36;76.84
22651;BME280;11492;42.646;23.400;2022-12-13T03:10:32;94574.63;;;0.24;77.53
22651;BME280;11492;42.646;23.400;2022-12-13T03:13:06;94566.50;;;0.40;76.91
22651;BME280;11492;42.646;23.400;2022-12-13T03:15:54;94563.44;;;0.46;77.70
22651;BME280;11492;42.646;23.400;2022-12-13T03:18:23;94563.97;;;0.40;76.71
22651;BME280;11492;42.646;23.400;2022-12-13T03:21:00;94565.59;;;0.50;76.19
22651;BME280;11492;42.646;23.400;2022-12-13T03:23:26;94555.59;;;0.49;76.05
22651;BME280;11492;42.646;23.400;2022-12-13T03:25:54;94556.25;;;0.50;77.09
22651;BME280;11492;42.646;23.400;2022-12-13T03:28:20;94554.66;;;0.49;76.13
22651;BME280;11492;42.646;23.400;2022-12-13T03:30:45;94550.88;;;0.35;76.92
22651;BME280;11492;42.646;23.400;2022-12-13T03:33:11;94563.44;;;0.46;75.91
22651;BME280;11492;42.646;23.400;2022-12-13T03:35:38;94559.16;;;0.27;75.40
22651;BME280;11492;42.646;23.400;2022-12-13T03:38:03;94567.44;;;0.39;75.60
22651;BME280;11492;42.646;23.400;2022-12-13T03:40:30;94567.56;;;0.28;75.53
22651;BME280;11492;42.646;23.400;2022-12-13T03:42:56;94565.69;;;0.30;74.82
22651;BME280;11492;42.646;23.400;2022-12-13T03:45:22;94565.16;;;0.36;74.95
22651;BME280;11492;42.646;23.400;2022-12-13T03:47:47;94556.13;;;0.43;74.95
22651;BME280;11492;42.646;23.400;2022-12-13T03:50:13;94575.47;;;0.44;74.35
22651;BME280;11492;42.646;23.400;2022-12-13T03:52:38;94554.34;;;0.34;74.98
22651;BME280;11492;42.646;23.400;2022-12-13T03:55:04;94571.44;;;0.41;74.22
22651;BME280;11492;42.646;23.400;2022-12-13T03:57:29;94579.72;;;0.34;75.25
22651;BME280;11492;42.646;23.400;2022-12-13T03:59:55;94579.59;;;0.35;75.16
22651;BME280;11492;42.646;23.400;2022-12-13T04:02:20;94586.94;;;0.38;74.64
22651;BME280;11492;42.646;23.400;2022-12-13T04:04:46;94590.16;;;0.40;74.72
22651;BME280;11492;42.646;23.400;2022-12-13T04:07:11;94570.09;;;0.28;74.86
22651;BME280;11492;42.646;23.400;2022-12-13T04:09:36;94594.94;;;0.34;74.97
22651;BME280;11492;42.646;23.400;2022-12-13T04:12:02;94580.91;;;0.30;75.80
22651;BME280;11492;42.646;23.400;2022-12-13T04:14:46;94606.97;;;0.32;75.85
22651;BME280;11492;42.646;23.400;2022-12-13T04:17:11;94594.13;;;0.24;76.73
22651;BME280;11492;42.646;23.400;2022-12-13T04:19:36;94608.81;;;0.30;76.98
22651;BME280;11492;42.646;23.400;2022-12-13T04:22:02;94603.09;;;0.28;76.38
22651;BME280;11492;42.646;23.400;2022-12-13T04:24:27;94624.56;;;0.24;76.54
22651;BME280;11492;42.646;23.400;2022-12-13T04:26:52;94626.06;;;0.26;76.79
22651;BME280;11492;42.646;23.400;2022-12-13T04:29:19;94638.06;;;0.24;77.31
22651;BME280;11492;42.646;23.400;2022-12-13T04:31:44;94626.16;;;0.16;77.10
22651;BME280;11492;42.646;23.400;2022-12-13T04:34:09;94632.03;;;0.16;76.61
22651;BME280;11492;42.646;23.400;2022-12-13T04:36:35;94639.88;;;0.13;77.56
22651;BME280;11492;42.646;23.400;2022-12-13T04:39:02;94648.00;;;0.07;76.84
22651;BME280;11492;42.646;23.400;2022-12-13T04:41:28;94659.19;;;0.05;76.81
22651;BME280;11492;42.646;23.400;2022-12-13T04:43:54;94642.88;;;-0.02;77.79
22651;BME280;11492;42.646;23.400;2022-12-13T04:46:20;94646.91;;;0.00;76.99
22651;BME280;11492;42.646;23.400;2022-12-13T04:48:46;94647.44;;;0.04;76.39
22651;BME280;11492;42.646;23.400;2022-12-13T04:51:11;94640.97;;;-0.09;76.91
22651;BME280;11492;42.646;23.400;2022-12-13T04:53:37;94659.16;;;-0.04;76.13
22651;BME280;11492;42.646;23.400;2022-12-13T04:56:03;94655.69;;;-0.03;76.21
22651;BME280;11492;42.646;23.400;2022-12-13T04:58:29;94656.41;;;-0.12;75.28
22651;BME280;11492;42.646;23.400;2022-12-13T05:00:55;94664.72;;;-0.10;76.49
22651;BME280;11492;42.646;23.400;2022-12-13T05:03:21;94658.53;;;-0.17;76.31
22651;BME280;11492;42.646;23.400;2022-12-13T05:05:47;94650.31;;;-0.30;75.46
22651;BME280;11492;42.646;23.400;2022-12-13T05:08:12;94663.44;;;-0.25;75.87
22651;BME280;11492;42.646;23.400;2022-12-13T05:10:37;94673.56;;;-0.25;75.46
22651;BME280;11492;42.646;23.400;2022-12-13T05:13:04;94663.50;;;-0.36;76.42
22651;BME280;11492;42.646;23.400;2022-12-13T05:15:29;94673.13;;;-0.30;75.77
22651;BME280;11492;42.646;23.400;2022-12-13T05:18:01;94660.03;;;-0.35;75.89
22651;BME280;11492;42.646;23.400;2022-12-13T05:20:27;94678.50;;;-0.24;76.05
22651;BME280;11492;42.646;23.400;2022-12-13T05:22:55;94675.03;;;-0.23;76.81
22651;BME280;11492;42.646;23.400;2022-12-13T05:25:24;94674.25;;;-0.23;76.13
22651;BME280;11492;42.646;23.400;2022-12-13T05:27:49;94677.72;;;-0.24;76.05
22651;BME280;11492;42.646;23.400;2022-12-13T05:30:15;94676.78;;;-0.03;75.95
22651;BME280;11492;42.646;23.400;2022-12-13T05:32:41;94682.94;;;-0.16;75.01
22651;BME280;11492;42.646;23.400;2022-12-13T05:35:06;94680.84;;;-0.11;74.41
22651;BME280;11492;42.646;23.400;2022-12-13T05:37:32;94682.06;;;-0.26;73.79
22651;BME280;11492;42.646;23.400;2022-12-13T05:39:57;94685.75;;;-0.19;75.45
22651;BME280;11492;42.646;23.400;2022-12-13T05:42:23;94698.44;;;-0.19;74.60
22651;BME280;11492;42.646;23.400;2022-12-13T05:44:50;94707.03;;;-0.31;73.33
22651;BME280;11492;42.646;23.400;2022-12-13T05:47:16;94706.91;;;-0.09;74.50
22651;BME280;11492;42.646;23.400;2022-12-13T05:49:41;94703.22;;;0.04;75.06
22651;BME280;11492;42.646;23.400;2022-12-13T05:52:17;94709.56;;;0.39;71.62
22651;BME280;11492;42.646;23.400;2022-12-13T05:54:43;94700.97;;;0.60;69.85
22651;BME280;11492;42.646;23.400;2022-12-13T05:57:08;94707.22;;;0.56;70.00
22651;BME280;11492;42.646;23.400;2022-12-13T05:59:33;94698.09;;;0.44;70.16
22651;BME280;11492;42.646;23.400;2022-12-13T06:01:59;94714.44;;;0.51;70.29
22651;BME280;11492;42.646;23.400;2022-12-13T06:04:24;94715.22;;;0.51;69.78
22651;BME280;11492;42.646;23.400;2022-12-13T06:06:50;94715.44;;;0.39;69.26
22651;BME280;11492;42.646;23.400;2022-12-13T06:09:16;94717.31;;;0.37;69.85
22651;BME280;11492;42.646;23.400;2022-12-13T06:11:41;94729.59;;;0.32;69.41
22651;BME280;11492;42.646;23.400;2022-12-13T06:14:07;94728.59;;;0.24;70.84
22651;BME280;11492;42.646;23.400;2022-12-13T06:16:32;94727.50;;;0.17;71.26
22651;BME280;11492;42.646;23.400;2022-12-13T06:18:57;94723.59;;;0.13;70.62
22651;BME280;11492;42.646;23.400;2022-12-13T06:21:23;94722.16;;;0.20;71.14
22651;BME280;11492;42.646;23.400;2022-12-13T06:23:48;94721.78;;;0.24;71.01
22651;BME280;11492;42.646;23.400;2022-12-13T06:26:13;94722.84;;;0.22;70.55
22651;BME280;11492;42.646;23.400;2022-12-13T06:28:39;94725.47;;;0.21;71.86
22651;BME280;11492;42.646;23.400;2022-12-13T06:31:04;94728.44;;;0.16;71.95
22651;BME280;11492;42.646;23.400;2022-12-13T06:33:30;94720.53;;;0.19;71.70
22651;BME280;11492;42.646;23.400;2022-12-13T06:35:59;94719.75;;;0.19;71.11
22651;BME280;11492;42.646;23.400;2022-12-13T06:38:25;94721.41;;;0.09;71.61
22651;BME280;11492;42.646;23.400;2022-12-13T06:40:50;94728.00;;;0.11;72.03
22651;BME280;11492;42.646;23.400;2022-12-13T06:43:18;94732.94;;;0.13;71.88
22651;BME280;11492;42.646;23.400;2022-12-13T06:45:43;94739.00;;;0.21;71.28
22651;BME280;11492;42.646;23.400;2022-12-13T06:48:09;94745.53;;;0.24;71.47
22651;BME280;11492;42.646;23.400;2022-12-13T06:50:36;94749.16;;;0.21;71.88
22651;BME280;11492;42.646;23.400;2022-12-13T06:53:01;94741.41;;;0.23;71.20
22651;BME280;11492;42.646;23.400;2022-12-13T06:55:26;94745.59;;;0.33;71.31
22651;BME280;11492;42.646;23.400;2022-12-13T06:57:52;94734.09;;;0.29;71.14
22651;BME280;11492;42.646;23.400;2022-12-13T07:00:17;94741.09;;;0.36;70.15
22651;BME280;11492;42.646;23.400;2022-12-13T07:02:43;94745.09;;;0.39;70.11
22651;BME280;11492;42.646;23.400;2022-12-13T07:05:09;94732.03;;;0.43;69.48
22651;BME280;11492;42.646;23.400;2022-12-13T07:07:34;94736.84;;;0.46;70.49
22651;BME280;11492;42.646;23.400;2022-12-13T07:10:00;94751.59;;;0.52;70.90
22651;BME280;11492;42.646;23.400;2022-12-13T07:12:25;94755.38;;;0.57;70.88
22651;BME280;11492;42.646;23.400;2022-12-13T07:14:51;94757.41;;;0.63;70.72
22651;BME280;11492;42.646;23.400;2022-12-13T07:17:16;94762.28;;;0.55;68.16
22651;BME280;11492;42.646;23.400;2022-12-13T07:19:42;94760.97;;;0.61;69.73
22651;BME280;11492;42.646;23.400;2022-12-13T07:22:07;94765.91;;;0.53;68.79
22651;BME280;11492;42.646;23.400;2022-12-13T07:24:33;94767.66;;;0.62;70.22
22651;BME280;11492;42.646;23.400;2022-12-13T07:26:59;94766.09;;;0.70;71.12
22651;BME280;11492;42.646;23.400;2022-12-13T07:29:24;94774.75;;;0.58;68.66
22651;BME280;11492;42.646;23.400;2022-12-13T07:31:49;94776.03;;;0.73;70.54
22651;BME280;11492;42.646;23.400;2022-12-13T07:34:15;94770.16;;;0.82;69.83
22651;BME280;11492;42.646;23.400;2022-12-13T07:36:40;94785.16;;;0.85;68.29
22651;BME280;11492;42.646;23.400;2022-12-13T07:39:06;94773.13;;;0.87;69.32
22651;BME280;11492;42.646;23.400;2022-12-13T07:41:31;94773.97;;;0.97;69.54
22651;BME280;11492;42.646;23.400;2022-12-13T07:43:57;94777.59;;;1.03;68.11
22651;BME280;11492;42.646;23.400;2022-12-13T07:46:23;94770.16;;;0.82;67.09
22651;BME280;11492;42.646;23.400;2022-12-13T07:48:48;94778.72;;;0.81;67.59
22651;BME280;11492;42.646;23.400;2022-12-13T07:51:13;94775.84;;;0.95;67.89
22651;BME280;11492;42.646;23.400;2022-12-13T07:53:39;94777.47;;;1.05;68.26
22651;BME280;11492;42.646;23.400;2022-12-13T07:56:09;94788.22;;;1.18;69.24
22651;BME280;11492;42.646;23.400;2022-12-13T07:58:35;94791.75;;;0.97;66.45
22651;BME280;11492;42.646;23.400;2022-12-13T08:01:06;94787.94;;;1.11;66.47
22651;BME280;11492;42.646;23.400;2022-12-13T08:03:32;94782.50;;;1.25;67.63
22651;BME280;11492;42.646;23.400;2022-12-13T08:06:05;94788.53;;;1.33;67.62
22651;BME280;11492;42.646;23.400;2022-12-13T08:08:31;94787.59;;;1.44;67.36
22651;BME280;11492;42.646;23.400;2022-12-13T08:11:09;94782.00;;;1.49;67.28
22651;BME280;11492;42.646;23.400;2022-12-13T08:13:35;94787.91;;;1.59;66.33
22651;BME280;11492;42.646;23.400;2022-12-13T08:16:06;94799.28;;;1.46;63.95
22651;BME280;11492;42.646;23.400;2022-12-13T08:18:32;94798.06;;;1.50;64.70
22651;BME280;11492;42.646;23.400;2022-12-13T08:21:03;94792.06;;;1.60;65.58
22651;BME280;11492;42.646;23.400;2022-12-13T08:23:32;94796.34;;;1.69;66.02
22651;BME280;11492;42.646;23.400;2022-12-13T08:25:59;94800.91;;;1.56;62.31
22651;BME280;11492;42.646;23.400;2022-12-13T08:28:25;94798.44;;;1.36;60.81
22651;BME280;11492;42.646;23.400;2022-12-13T08:30:51;94812.63;;;1.29;61.08
22651;BME280;11492;42.646;23.400;2022-12-13T08:33:17;94796.69;;;1.37;60.96
22651;BME280;11492;42.646;23.400;2022-12-13T08:35:43;94793.66;;;1.52;61.21
22651;BME280;11492;42.646;23.400;2022-12-13T08:38:09;94788.31;;;1.64;62.77
22651;BME280;11492;42.646;23.400;2022-12-13T08:40:36;94793.38;;;1.46;61.43
22651;BME280;11492;42.646;23.400;2022-12-13T08:43:01;94776.41;;;1.55;60.57
22651;BME280;11492;42.646;23.400;2022-12-13T08:45:27;94781.38;;;1.66;61.82
22651;BME280;11492;42.646;23.400;2022-12-13T08:47:56;94775.47;;;1.75;63.24
22651;BME280;11492;42.646;23.400;2022-12-13T08:50:22;94774.94;;;1.81;63.65
22651;BME280;11492;42.646;23.400;2022-12-13T08:52:50;94772.81;;;1.86;64.19
22651;BME280;11492;42.646;23.400;2022-12-13T08:55:15;94764.38;;;1.85;64.65
22651;BME280;11492;42.646;23.400;2022-12-13T08:57:41;94755.69;;;1.88;63.69
22651;BME280;11492;42.646;23.400;2022-12-13T09:00:13;94759.13;;;1.96;63.89
22651;BME280;11492;42.646;23.400;2022-12-13T09:02:39;94751.53;;;1.77;60.87
22651;BME280;11492;42.646;23.400;2022-12-13T09:05:06;94768.41;;;1.88;60.50
22651;BME280;11492;42.646;23.400;2022-12-13T09:07:31;94763.03;;;1.72;59.96
22651;BME280;11492;42.646;23.400;2022-12-13T09:09:57;94756.22;;;1.73;57.50
22651;BME280;11492;42.646;23.400;2022-12-13T09:12:22;94756.31;;;3.61;55.27
22651;BME280;11492;42.646;23.400;2022-12-13T09:14:48;94742.09;;;5.35;49.51
22651;BME280;11492;42.646;23.400;2022-12-13T09:17:14;94740.84;;;7.35;47.20
22651;BME280;11492;42.646;23.400;2022-12-13T09:19:39;94729.13;;;9.17;44.24
22651;BME280;11492;42.646;23.400;2022-12-13T09:22:05;94710.94;;;10.57;41.00
22651;BME280;11492;42.646;23.400;2022-12-13T09:24:31;94714.19;;;11.99;39.81
22651;BME280;11492;42.646;23.400;2022-12-13T09:26:56;94708.41;;;12.88;36.67
22651;BME280;11492;42.646;23.400;2022-12-13T09:29:21;94699.44;;;13.84;36.60
22651;BME280;11492;42.646;23.400;2022-12-13T09:31:47;94698.34;;;14.11;32.38
22651;BME280;11492;42.646;23.400;2022-12-13T09:34:12;94695.16;;;14.09;32.84
22651;BME280;11492;42.646;23.400;2022-12-13T09:36:38;94696.13;;;14.51;33.65
22651;BME280;11492;42.646;23.400;2022-12-13T09:39:03;94704.00;;;14.93;31.43
22651;BME280;11492;42.646;23.400;2022-12-13T09:41:39;94700.22;;;15.37;30.57
22651;BME280;11492;42.646;23.400;2022-12-13T09:44:13;94687.16;;;14.47;30.32
22651;BME280;11492;42.646;23.400;2022-12-13T09:46:42;94696.25;;;13.82;31.34
22651;BME280;11492;42.646;23.400;2022-12-13T09:49:34;94695.59;;;13.31;33.21
22651;BME280;11492;42.646;23.400;2022-12-13T09:52:04;94700.63;;;12.94;31.79
22651;BME280;11492;42.646;23.400;2022-12-13T09:54:32;94701.00;;;12.53;31.96
22651;BME280;11492;42.646;23.400;2022-12-13T09:56:58;94700.81;;;12.93;32.42
22651;BME280;11492;42.646;23.400;2022-12-13T09:59:29;94691.38;;;13.43;33.19
22651;BME280;11492;42.646;23.400;2022-12-13T10:01:56;94684.44;;;13.86;31.36
22651;BME280;11492;42.646;23.400;2022-12-13T10:04:27;94683.91;;;14.21;30.48
22651;BME280;11492;42.646;23.400;2022-12-13T10:06:53;94683.78;;;15.43;30.04
22651;BME280;11492;42.646;23.400;2022-12-13T10:09:20;94677.25;;;16.04;28.58
22651;BME280;11492;42.646;23.400;2022-12-13T10:11:53;94670.94;;;16.70;28.35
22651;BME280;11492;42.646;23.400;2022-12-13T10:16:50;94672.25;;;17.01;26.68
22651;BME280;11492;42.646;23.400;2022-12-13T10:21:58;94649.59;;;17.35;27.74
22651;BME280;11492;42.646;23.400;2022-12-13T10:24:27;94657.81;;;17.89;27.34
22651;BME280;11492;42.646;23.400;2022-12-13T10:27:10;94647.69;;;18.58;26.16
22651;BME280;11492;42.646;23.400;2022-12-13T10:30:04;94646.03;;;19.49;25.25
22651;BME280;11492;42.646;23.400;2022-12-13T10:32:30;94635.88;;;19.69;26.10
22651;BME280;11492;42.646;23.400;2022-12-13T10:34:59;94633.25;;;19.90;26.00
22651;BME280;11492;42.646;23.400;2022-12-13T10:37:31;94628.84;;;20.17;23.54
22651;BME280;11492;42.646;23.400;2022-12-13T10:39:59;94620.78;;;20.44;23.80
22651;BME280;11492;42.646;23.400;2022-12-13T10:42:25;94619.25;;;20.48;24.44
22651;BME280;11492;42.646;23.400;2022-12-13T10:45:09;94618.19;;;20.75;24.20
22651;BME280;11492;42.646;23.400;2022-12-13T10:47:41;94627.44;;;19.67;25.49
22651;BME280;11492;42.646;23.400;2022-12-13T10:50:21;94615.06;;;20.26;23.28
22651;BME280;11492;42.646;23.400;2022-12-13T10:52:47;94611.75;;;18.98;24.64
22651;BME280;11492;42.646;23.400;2022-12-13T10:55:29;94619.22;;;18.18;25.65
22651;BME280;11492;42.646;23.400;2022-12-13T10:57:59;94620.97;;;17.51;26.80
22651;BME280;11492;42.646;23.400;2022-12-13T11:02:55;94615.50;;;15.05;30.05
22651;BME280;11492;42.646;23.400;2022-12-13T11:05:27;94620.03;;;13.70;30.60
22651;BME280;11492;42.646;23.400;2022-12-13T11:07:53;94611.91;;;12.67;32.72
22651;BME280;11492;42.646;23.400;2022-12-13T11:10:25;94621.91;;;12.89;35.17
22651;BME280;11492;42.646;23.400;2022-12-13T11:12:58;94612.44;;;14.43;33.28
22651;BME280;11492;42.646;23.400;2022-12-13T11:15:26;94601.25;;;16.25;29.16
22651;BME280;11492;42.646;23.400;2022-12-13T11:18:02;94592.81;;;18.03;27.44
22651;BME280;11492;42.646;23.400;2022-12-13T11:20:57;94582.47;;;19.17;26.06
22651;BME280;11492;42.646;23.400;2022-12-13T11:25:58;94588.69;;;19.69;24.79
22651;BME280;11492;42.646;23.400;2022-12-13T11:31:47;94577.03;;;20.49;23.43
22651;BME280;11492;42.646;23.400;2022-12-13T11:37:29;94575.88;;;20.98;22.43
22651;BME280;11492;42.646;23.400;2022-12-13T11:40:11;94588.13;;;20.09;24.05
22651;BME280;11492;42.646;23.400;2022-12-13T11:42:52;94606.72;;;17.81;27.16
22651;BME280;11492;42.646;23.400;2022-12-13T11:45:29;94618.50;;;16.08;28.69
22651;BME280;11492;42.646;23.400;2022-12-13T11:50:43;94599.50;;;15.44;29.91
22651;BME280;11492;42.646;23.400;2022-12-13T11:53:29;94596.03;;;16.88;27.08
22651;BME280;11492;42.646;23.400;2022-12-13T11:58:53;94569.78;;;18.93;26.68
22651;BME280;11492;42.646;23.400;2022-12-13T12:01:34;94582.00;;;18.87;26.14
22651;BME280;11492;42.646;23.400;2022-12-13T12:04:14;94576.56;;;18.45;26.67
22651;BME280;11492;42.646;23.400;2022-12-13T12:06:53;94594.63;;;16.11;28.32
22651;BME280;11492;42.646;23.400;2022-12-13T12:09:23;94595.59;;;14.21;31.54
22651;BME280;11492;42.646;23.400;2022-12-13T12:12:00;94597.41;;;12.53;34.21
22651;BME280;11492;42.646;23.400;2022-12-13T12:14:51;94586.09;;;10.71;37.42
22651;BME280;11492;42.646;23.400;2022-12-13T12:17:22;94602.38;;;9.56;39.89
22651;BME280;11492;42.646;23.400;2022-12-13T12:19:51;94601.53;;;8.57;42.42
22651;BME280;11492;42.646;23.400;2022-12-13T12:22:42;94598.50;;;7.81;44.59
22651;BME280;11492;42.646;23.400;2022-12-13T12:31:04;94603.00;;;6.06;49.13
22651;BME280;11492;42.646;23.400;2022-12-13T12:43:07;94617.53;;;4.87;53.93
22651;BME280;11492;42.646;23.400;2022-12-13T12:48:39;94613.34;;;4.78;57.83
22651;BME280;11492;42.646;23.400;2022-12-13T12:51:26;94617.66;;;4.77;57.70
22651;BME280;11492;42.646;23.400;2022-12-13T12:56:47;94629.09;;;4.66;57.18
22651;BME280;11492;42.646;23.400;2022-12-13T13:02:15;94631.84;;;4.72;56.95
22651;BME280;11492;42.646;23.400;2022-12-13T13:04:42;94636.31;;;4.70;56.18
22651;BME280;11492;42.646;23.400;2022-12-13T13:07:14;94633.91;;;4.69;58.39
22651;BME280;11492;42.646;23.400;2022-12-13T13:09:42;94645.25;;;4.66;56.90
22651;BME280;11492;42.646;23.400;2022-12-13T13:12:08;94657.69;;;4.61;57.25
22651;BME280;11492;42.646;23.400;2022-12-13T13:14:36;94650.94;;;4.60;58.35
22651;BME280;11492;42.646;23.400;2022-12-13T13:19:44;94656.38;;;4.57;57.34
22651;BME280;11492;42.646;23.400;2022-12-13T13:22:35;94663.09;;;4.58;58.30
22651;BME280;11492;42.646;23.400;2022-12-13T13:27:40;94666.81;;;5.04;58.56
22651;BME280;11492;42.646;23.400;2022-12-13T13:30:16;94669.53;;;5.03;57.88
22651;BME280;11492;42.646;23.400;2022-12-13T13:32:42;94664.22;;;4.96;58.07
22651;BME280;11492;42.646;23.400;2022-12-13T13:37:56;94687.13;;;4.73;59.51
22651;BME280;11492;42.646;23.400;2022-12-13T13:45:29;94688.16;;;4.30;63.25
22651;BME280;11492;42.646;23.400;2022-12-13T13:56:04;94672.47;;;3.83;61.52
22651;BME280;11492;42.646;23.400;2022-12-13T14:04:08;94663.38;;;3.63;63.61
22651;BME280;11492;42.646;23.400;2022-12-13T14:07:07;94666.28;;;3.51;63.46
22651;BME280;11492;42.646;23.400;2022-12-13T14:24:38;94662.13;;;3.33;63.54
22651;BME280;11492;42.646;23.400;2022-12-13T14:27:26;94668.09;;;3.24;65.27
22651;BME280;11492;42.646;23.400;2022-12-13T14:29:52;94667.56;;;3.21;66.66
22651;BME280;11492;42.646;23.400;2022-12-13T14:32:21;94660.66;;;3.13;66.21
22651;BME280;11492;42.646;23.400;2022-12-13T14:34:48;94645.97;;;2.98;66.75
22651;BME280;11492;42.646;23.400;2022-12-13T14:37:24;94648.81;;;2.95;66.63
22651;BME280;11492;42.646;23.400;2022-12-13T14:39:52;94635.72;;;2.90;65.30
22651;BME280;11492;42.646;23.400;2022-12-13T14:42:27;94626.22;;;2.83;64.62
22651;BME280;11492;42.646;23.400;2022-12-13T14:45:27;94627.06;;;2.74;64.93
22651;BME280;11492;42.646;23.400;2022-12-13T14:47:55;94637.56;;;2.71;65.03
22651;BME280;11492;42.646;23.400;2022-12-13T14:50:24;94655.28;;;2.63;65.12
22651;BME280;11492;42.646;23.400;2022-12-13T14:52:50;94659.59;;;2.53;65.41
22651;BME280;11492;42.646;23.400;2022-12-13T14:55:35;94655.06;;;2.47;65.69
22651;BME280;11492;42.646;23.400;2022-12-13T14:58:13;94651.88;;;2.46;67.22
22651;BME280;11492;42.646;23.400;2022-12-13T15:00:40;94651.91;;;2.27;67.03
22651;BME280;11492;42.646;23.400;2022-12-13T15:03:06;94661.53;;;2.33;65.97